sensor_id;sensor_type;location;lat;lon;timestamp;P1;durP1;ratioP1;P2;durP2;ratioP2
31808;SDS011;18379;48.208;-1.518;2022-10-31T00:02:14;54.73;;;50.40;;
31808;SDS011;18379;48.208;-1.518;2022-10-31T00:07:15;54.13;;;50.07;;
31808;SDS011;18379;48.208;-1.518;2022-10-31T00:12:16;54.77;;;50.57;;
31808;SDS011;18379;48.208;-1.518;2022-10-31T00:17:17;53.70;;;49.70;;
31808;SDS011;18379;48.208;-1.518;2022-10-31T00:22:17;53.97;;;49.47;;
31808;SDS011;18379;48.208;-1.518;2022-10-31T00:27:18;50.07;;;46.20;;
31808;SDS011;18379;48.208;-1.518;2022-10-31T00:32:19;47.83;;;44.33;;
31808;SDS011;18379;48.208;-1.518;2022-10-31T00:37:20;47.00;;;43.73;;
31808;SDS011;18379;48.208;-1.518;2022-10-31T00:42:20;43.77;;;40.87;;
31808;SDS011;18379;48.208;-1.518;2022-10-31T00:47:21;43.33;;;40.60;;
31808;SDS011;18379;48.208;-1.518;2022-10-31T00:52:22;42.70;;;39.70;;
31808;SDS011;18379;48.208;-1.518;2022-10-31T00:57:23;43.40;;;40.40;;
31808;SDS011;18379;48.208;-1.518;2022-10-31T01:02:23;42.67;;;40.13;;
31808;SDS011;18379;48.208;-1.518;2022-10-31T01:07:24;42.83;;;40.07;;
31808;SDS011;18379;48.208;-1.518;2022-10-31T01:12:25;42.97;;;40.07;;
31808;SDS011;18379;48.208;-1.518;2022-10-31T01:17:26;42.83;;;40.00;;
31808;SDS011;18379;48.208;-1.518;2022-10-31T01:22:26;42.80;;;39.97;;
31808;SDS011;18379;48.208;-1.518;2022-10-31T01:27:27;42.77;;;40.07;;
31808;SDS011;18379;48.208;-1.518;2022-10-31T01:32:28;42.73;;;40.00;;
31808;SDS011;18379;48.208;-1.518;2022-10-31T01:37:30;43.00;;;40.30;;
31808;SDS011;18379;48.208;-1.518;2022-10-31T01:42:31;43.27;;;40.23;;
31808;SDS011;18379;48.208;-1.518;2022-10-31T01:47:40;45.93;;;42.67;;
31808;SDS011;18379;48.208;-1.518;2022-10-31T01:52:47;53.40;;;49.73;;
31808;SDS011;18379;48.208;-1.518;2022-10-31T01:57:50;47.50;;;44.20;;
31808;SDS011;18379;48.208;-1.518;2022-10-31T02:02:54;44.27;;;41.27;;
31808;SDS011;18379;48.208;-1.518;2022-10-31T02:08:03;44.47;;;41.43;;
31808;SDS011;18379;48.208;-1.518;2022-10-31T02:13:08;55.40;;;51.57;;
31808;SDS011;18379;48.208;-1.518;2022-10-31T02:18:10;55.60;;;51.77;;
31808;SDS011;18379;48.208;-1.518;2022-10-31T02:23:25;55.33;;;51.23;;
31808;SDS011;18379;48.208;-1.518;2022-10-31T02:29:01;51.07;;;47.80;;
31808;SDS011;18379;48.208;-1.518;2022-10-31T02:44:28;42.23;;;39.93;;
31808;SDS011;18379;48.208;-1.518;2022-10-31T02:49:42;55.60;;;51.83;;
31808;SDS011;18379;48.208;-1.518;2022-10-31T02:55:08;43.33;;;40.83;;
31808;SDS011;18379;48.208;-1.518;2022-10-31T03:00:10;54.00;;;50.37;;
31808;SDS011;18379;48.208;-1.518;2022-10-31T03:10:54;46.77;;;43.87;;
31808;SDS011;18379;48.208;-1.518;2022-10-31T03:16:06;43.10;;;40.77;;
31808;SDS011;18379;48.208;-1.518;2022-10-31T03:26:14;53.67;;;50.17;;
31808;SDS011;18379;48.208;-1.518;2022-10-31T03:31:17;52.83;;;49.30;;
31808;SDS011;18379;48.208;-1.518;2022-10-31T03:36:21;43.80;;;41.33;;
31808;SDS011;18379;48.208;-1.518;2022-10-31T03:41:23;41.80;;;39.50;;
31808;SDS011;18379;48.208;-1.518;2022-10-31T03:46:28;42.20;;;39.67;;
31808;SDS011;18379;48.208;-1.518;2022-10-31T03:56:41;53.37;;;49.70;;
31808;SDS011;18379;48.208;-1.518;2022-10-31T04:01:50;47.90;;;44.93;;
31808;SDS011;18379;48.208;-1.518;2022-10-31T04:06:55;41.27;;;39.03;;
31808;SDS011;18379;48.208;-1.518;2022-10-31T04:11:59;41.40;;;39.10;;
31808;SDS011;18379;48.208;-1.518;2022-10-31T04:17:03;45.63;;;43.07;;
31808;SDS011;18379;48.208;-1.518;2022-10-31T04:22:07;52.97;;;49.43;;
31808;SDS011;18379;48.208;-1.518;2022-10-31T04:27:08;52.13;;;48.77;;
31808;SDS011;18379;48.208;-1.518;2022-10-31T04:32:09;53.43;;;49.80;;
31808;SDS011;18379;48.208;-1.518;2022-10-31T04:37:10;53.13;;;49.67;;
31808;SDS011;18379;48.208;-1.518;2022-10-31T04:42:11;53.47;;;49.97;;
31808;SDS011;18379;48.208;-1.518;2022-10-31T04:47:11;51.73;;;48.20;;
31808;SDS011;18379;48.208;-1.518;2022-10-31T04:52:12;53.80;;;50.20;;
31808;SDS011;18379;48.208;-1.518;2022-10-31T04:57:13;54.53;;;50.73;;
31808;SDS011;18379;48.208;-1.518;2022-10-31T05:02:14;52.67;;;48.83;;
31808;SDS011;18379;48.208;-1.518;2022-10-31T05:07:14;52.33;;;48.87;;
31808;SDS011;18379;48.208;-1.518;2022-10-31T05:12:15;53.30;;;49.40;;
31808;SDS011;18379;48.208;-1.518;2022-10-31T05:17:16;53.30;;;49.53;;
31808;SDS011;18379;48.208;-1.518;2022-10-31T05:22:17;53.27;;;49.80;;
31808;SDS011;18379;48.208;-1.518;2022-10-31T05:27:17;52.00;;;48.70;;
31808;SDS011;18379;48.208;-1.518;2022-10-31T05:32:18;53.17;;;49.57;;
31808;SDS011;18379;48.208;-1.518;2022-10-31T05:37:19;49.80;;;46.63;;
31808;SDS011;18379;48.208;-1.518;2022-10-31T05:42:20;45.93;;;43.20;;
31808;SDS011;18379;48.208;-1.518;2022-10-31T05:47:20;43.10;;;40.40;;
31808;SDS011;18379;48.208;-1.518;2022-10-31T05:52:21;42.60;;;40.20;;
31808;SDS011;18379;48.208;-1.518;2022-10-31T05:57:22;42.07;;;39.87;;
31808;SDS011;18379;48.208;-1.518;2022-10-31T06:02:23;42.43;;;40.17;;
31808;SDS011;18379;48.208;-1.518;2022-10-31T06:07:24;43.23;;;39.80;;
31808;SDS011;18379;48.208;-1.518;2022-10-31T06:12:24;41.63;;;39.03;;
31808;SDS011;18379;48.208;-1.518;2022-10-31T06:17:25;40.53;;;38.43;;
31808;SDS011;18379;48.208;-1.518;2022-10-31T06:22:26;41.40;;;39.03;;
31808;SDS011;18379;48.208;-1.518;2022-10-31T06:27:27;42.13;;;39.83;;
31808;SDS011;18379;48.208;-1.518;2022-10-31T06:32:28;41.50;;;39.20;;
31808;SDS011;18379;48.208;-1.518;2022-10-31T06:37:29;41.37;;;39.17;;
31808;SDS011;18379;48.208;-1.518;2022-10-31T06:42:30;41.90;;;39.40;;
31808;SDS011;18379;48.208;-1.518;2022-10-31T06:47:31;42.03;;;39.80;;
31808;SDS011;18379;48.208;-1.518;2022-10-31T06:52:32;43.77;;;41.13;;
31808;SDS011;18379;48.208;-1.518;2022-10-31T06:57:33;47.60;;;44.40;;
31808;SDS011;18379;48.208;-1.518;2022-10-31T07:02:34;48.67;;;45.60;;
31808;SDS011;18379;48.208;-1.518;2022-10-31T07:07:35;51.87;;;48.10;;
31808;SDS011;18379;48.208;-1.518;2022-10-31T07:12:35;53.33;;;49.57;;
31808;SDS011;18379;48.208;-1.518;2022-10-31T07:17:36;54.17;;;50.33;;
31808;SDS011;18379;48.208;-1.518;2022-10-31T07:22:37;54.60;;;50.77;;
31808;SDS011;18379;48.208;-1.518;2022-10-31T07:27:41;54.23;;;50.50;;
31808;SDS011;18379;48.208;-1.518;2022-10-31T07:32:43;55.87;;;52.00;;
31808;SDS011;18379;48.208;-1.518;2022-10-31T07:37:45;56.90;;;52.60;;
31808;SDS011;18379;48.208;-1.518;2022-10-31T07:42:47;59.43;;;54.70;;
31808;SDS011;18379;48.208;-1.518;2022-10-31T07:47:50;56.40;;;51.67;;
31808;SDS011;18379;48.208;-1.518;2022-10-31T07:58:19;60.87;;;55.27;;
31808;SDS011;18379;48.208;-1.518;2022-10-31T08:03:20;54.40;;;49.97;;
31808;SDS011;18379;48.208;-1.518;2022-10-31T08:08:20;53.87;;;49.03;;
31808;SDS011;18379;48.208;-1.518;2022-10-31T08:13:21;51.73;;;47.53;;
31808;SDS011;18379;48.208;-1.518;2022-10-31T08:18:22;47.37;;;43.77;;
31808;SDS011;18379;48.208;-1.518;2022-10-31T08:23:23;46.90;;;43.40;;
31808;SDS011;18379;48.208;-1.518;2022-10-31T08:28:25;45.33;;;42.17;;
31808;SDS011;18379;48.208;-1.518;2022-10-31T08:33:25;45.07;;;41.77;;
31808;SDS011;18379;48.208;-1.518;2022-10-31T08:38:26;44.33;;;41.40;;
31808;SDS011;18379;48.208;-1.518;2022-10-31T08:43:27;44.27;;;41.47;;
31808;SDS011;18379;48.208;-1.518;2022-10-31T08:48:28;43.73;;;41.13;;
31808;SDS011;18379;48.208;-1.518;2022-10-31T08:53:29;44.73;;;41.87;;
31808;SDS011;18379;48.208;-1.518;2022-10-31T08:58:30;43.43;;;40.83;;
31808;SDS011;18379;48.208;-1.518;2022-10-31T09:03:31;44.50;;;41.80;;
31808;SDS011;18379;48.208;-1.518;2022-10-31T09:08:33;46.53;;;43.03;;
31808;SDS011;18379;48.208;-1.518;2022-10-31T09:13:34;52.00;;;48.30;;
31808;SDS011;18379;48.208;-1.518;2022-10-31T09:18:35;46.93;;;43.73;;
31808;SDS011;18379;48.208;-1.518;2022-10-31T09:23:36;55.63;;;51.67;;
31808;SDS011;18379;48.208;-1.518;2022-10-31T09:28:36;54.90;;;50.97;;
31808;SDS011;18379;48.208;-1.518;2022-10-31T09:33:37;55.13;;;51.33;;
31808;SDS011;18379;48.208;-1.518;2022-10-31T09:38:38;56.77;;;52.63;;
31808;SDS011;18379;48.208;-1.518;2022-10-31T09:49:33;51.40;;;48.00;;
31808;SDS011;18379;48.208;-1.518;2022-10-31T09:54:49;59.27;;;54.67;;
31808;SDS011;18379;48.208;-1.518;2022-10-31T09:59:52;48.47;;;45.23;;
31808;SDS011;18379;48.208;-1.518;2022-10-31T10:05:11;48.07;;;44.77;;
31808;SDS011;18379;48.208;-1.518;2022-10-31T10:15:53;49.37;;;45.60;;
31808;SDS011;18379;48.208;-1.518;2022-10-31T10:20:59;53.17;;;49.17;;
31808;SDS011;18379;48.208;-1.518;2022-10-31T10:26:18;58.33;;;53.63;;
31808;SDS011;18379;48.208;-1.518;2022-10-31T10:31:22;54.60;;;50.40;;
31808;SDS011;18379;48.208;-1.518;2022-10-31T10:36:37;48.93;;;44.83;;
31808;SDS011;18379;48.208;-1.518;2022-10-31T10:41:45;60.17;;;55.67;;
31808;SDS011;18379;48.208;-1.518;2022-10-31T10:47:07;60.87;;;56.17;;
31808;SDS011;18379;48.208;-1.518;2022-10-31T11:02:54;49.07;;;45.87;;
31808;SDS011;18379;48.208;-1.518;2022-10-31T11:07:56;49.87;;;46.27;;
31808;SDS011;18379;48.208;-1.518;2022-10-31T11:13:02;48.90;;;45.60;;
31808;SDS011;18379;48.208;-1.518;2022-10-31T11:18:21;60.30;;;55.40;;
31808;SDS011;18379;48.208;-1.518;2022-10-31T11:23:25;51.60;;;47.57;;
31808;SDS011;18379;48.208;-1.518;2022-10-31T11:28:28;50.97;;;47.00;;
31808;SDS011;18379;48.208;-1.518;2022-10-31T11:38:50;63.73;;;58.43;;
31808;SDS011;18379;48.208;-1.518;2022-10-31T11:43:53;55.60;;;51.47;;
31808;SDS011;18379;48.208;-1.518;2022-10-31T11:48:59;53.10;;;48.80;;
31808;SDS011;18379;48.208;-1.518;2022-10-31T11:54:02;51.67;;;47.63;;
31808;SDS011;18379;48.208;-1.518;2022-10-31T11:59:05;56.90;;;52.20;;
31808;SDS011;18379;48.208;-1.518;2022-10-31T12:04:15;64.50;;;59.30;;
31808;SDS011;18379;48.208;-1.518;2022-10-31T12:09:23;64.10;;;58.90;;
31808;SDS011;18379;48.208;-1.518;2022-10-31T12:19:54;63.90;;;58.63;;
31808;SDS011;18379;48.208;-1.518;2022-10-31T12:46:18;66.77;;;60.83;;
31808;SDS011;18379;48.208;-1.518;2022-10-31T12:56:59;56.70;;;51.77;;
31808;SDS011;18379;48.208;-1.518;2022-10-31T13:02:20;64.33;;;59.30;;
31808;SDS011;18379;48.208;-1.518;2022-10-31T13:07:46;65.97;;;60.23;;
31808;SDS011;18379;48.208;-1.518;2022-10-31T13:12:55;55.83;;;51.03;;
31808;SDS011;18379;48.208;-1.518;2022-10-31T13:18:02;54.77;;;50.17;;
31808;SDS011;18379;48.208;-1.518;2022-10-31T13:23:16;64.57;;;59.40;;
31808;SDS011;18379;48.208;-1.518;2022-10-31T13:28:44;64.43;;;58.87;;
31808;SDS011;18379;48.208;-1.518;2022-10-31T13:34:01;56.20;;;51.10;;
31808;SDS011;18379;48.208;-1.518;2022-10-31T13:44:34;55.63;;;51.20;;
31808;SDS011;18379;48.208;-1.518;2022-10-31T13:49:39;67.07;;;61.37;;
31808;SDS011;18379;48.208;-1.518;2022-10-31T13:54:41;66.00;;;60.37;;
31808;SDS011;18379;48.208;-1.518;2022-10-31T13:59:46;67.27;;;61.63;;
31808;SDS011;18379;48.208;-1.518;2022-10-31T14:04:57;56.03;;;51.83;;
31808;SDS011;18379;48.208;-1.518;2022-10-31T14:10:19;63.60;;;58.33;;
31808;SDS011;18379;48.208;-1.518;2022-10-31T14:15:25;56.63;;;51.90;;
31808;SDS011;18379;48.208;-1.518;2022-10-31T14:20:38;56.47;;;51.70;;
31808;SDS011;18379;48.208;-1.518;2022-10-31T14:25:41;69.30;;;63.30;;
31808;SDS011;18379;48.208;-1.518;2022-10-31T14:30:50;67.77;;;61.80;;
31808;SDS011;18379;48.208;-1.518;2022-10-31T14:41:13;55.37;;;50.87;;
31808;SDS011;18379;48.208;-1.518;2022-10-31T14:51:50;65.27;;;60.23;;
31808;SDS011;18379;48.208;-1.518;2022-10-31T14:56:53;58.10;;;53.57;;
31808;SDS011;18379;48.208;-1.518;2022-10-31T15:02:02;52.60;;;48.33;;
31808;SDS011;18379;48.208;-1.518;2022-10-31T15:07:16;62.77;;;57.83;;
31808;SDS011;18379;48.208;-1.518;2022-10-31T15:17:25;59.73;;;54.37;;
31808;SDS011;18379;48.208;-1.518;2022-10-31T15:22:26;61.63;;;55.50;;
31808;SDS011;18379;48.208;-1.518;2022-10-31T15:27:29;56.47;;;51.67;;
31808;SDS011;18379;48.208;-1.518;2022-10-31T15:32:32;53.77;;;49.27;;
31808;SDS011;18379;48.208;-1.518;2022-10-31T15:37:33;51.67;;;47.87;;
31808;SDS011;18379;48.208;-1.518;2022-10-31T15:42:35;50.37;;;46.73;;
31808;SDS011;18379;48.208;-1.518;2022-10-31T15:47:54;62.23;;;57.47;;
31808;SDS011;18379;48.208;-1.518;2022-10-31T15:53:20;60.43;;;55.63;;
31808;SDS011;18379;48.208;-1.518;2022-10-31T15:58:25;49.03;;;45.63;;
31808;SDS011;18379;48.208;-1.518;2022-10-31T16:03:29;47.47;;;44.27;;
31808;SDS011;18379;48.208;-1.518;2022-10-31T16:08:33;45.83;;;43.03;;
31808;SDS011;18379;48.208;-1.518;2022-10-31T16:13:36;50.23;;;46.77;;
31808;SDS011;18379;48.208;-1.518;2022-10-31T16:18:41;57.93;;;53.77;;
31808;SDS011;18379;48.208;-1.518;2022-10-31T16:23:45;56.27;;;52.23;;
31808;SDS011;18379;48.208;-1.518;2022-10-31T16:28:52;56.70;;;52.70;;
31808;SDS011;18379;48.208;-1.518;2022-10-31T16:34:04;45.73;;;42.63;;
31808;SDS011;18379;48.208;-1.518;2022-10-31T16:39:11;57.17;;;53.00;;
31808;SDS011;18379;48.208;-1.518;2022-10-31T16:44:15;57.40;;;53.17;;
31808;SDS011;18379;48.208;-1.518;2022-10-31T16:49:24;46.53;;;43.53;;
31808;SDS011;18379;48.208;-1.518;2022-10-31T16:54:25;48.03;;;44.63;;
31808;SDS011;18379;48.208;-1.518;2022-10-31T16:59:28;48.80;;;45.07;;
31808;SDS011;18379;48.208;-1.518;2022-10-31T17:04:30;48.87;;;44.93;;
31808;SDS011;18379;48.208;-1.518;2022-10-31T17:09:31;50.10;;;46.07;;
31808;SDS011;18379;48.208;-1.518;2022-10-31T17:14:32;47.67;;;44.13;;
31808;SDS011;18379;48.208;-1.518;2022-10-31T17:19:34;50.03;;;46.23;;
31808;SDS011;18379;48.208;-1.518;2022-10-31T17:24:35;51.80;;;47.73;;
31808;SDS011;18379;48.208;-1.518;2022-10-31T17:29:36;53.73;;;49.53;;
31808;SDS011;18379;48.208;-1.518;2022-10-31T17:34:37;59.47;;;54.47;;
31808;SDS011;18379;48.208;-1.518;2022-10-31T17:39:37;64.30;;;58.37;;
31808;SDS011;18379;48.208;-1.518;2022-10-31T17:44:38;62.77;;;57.40;;
31808;SDS011;18379;48.208;-1.518;2022-10-31T17:49:39;58.67;;;53.93;;
31808;SDS011;18379;48.208;-1.518;2022-10-31T17:54:40;56.53;;;52.33;;
31808;SDS011;18379;48.208;-1.518;2022-10-31T17:59:41;59.27;;;54.77;;
31808;SDS011;18379;48.208;-1.518;2022-10-31T18:04:42;58.60;;;53.90;;
31808;SDS011;18379;48.208;-1.518;2022-10-31T18:09:43;60.73;;;55.53;;
31808;SDS011;18379;48.208;-1.518;2022-10-31T18:14:45;59.77;;;55.20;;
31808;SDS011;18379;48.208;-1.518;2022-10-31T18:19:46;59.30;;;54.93;;
31808;SDS011;18379;48.208;-1.518;2022-10-31T18:24:47;57.73;;;53.30;;
31808;SDS011;18379;48.208;-1.518;2022-10-31T18:29:47;55.77;;;51.63;;
31808;SDS011;18379;48.208;-1.518;2022-10-31T18:34:48;56.87;;;52.90;;
31808;SDS011;18379;48.208;-1.518;2022-10-31T18:39:49;56.50;;;52.73;;
31808;SDS011;18379;48.208;-1.518;2022-10-31T18:44:58;50.37;;;46.90;;
31808;SDS011;18379;48.208;-1.518;2022-10-31T18:50:50;57.40;;;53.37;;
31808;SDS011;18379;48.208;-1.518;2022-10-31T18:55:51;59.07;;;54.57;;
31808;SDS011;18379;48.208;-1.518;2022-10-31T19:00:52;49.93;;;46.77;;
31808;SDS011;18379;48.208;-1.518;2022-10-31T19:05:59;53.40;;;49.60;;
31808;SDS011;18379;48.208;-1.518;2022-10-31T19:11:02;43.43;;;41.00;;
31808;SDS011;18379;48.208;-1.518;2022-10-31T19:21:14;56.13;;;51.97;;
31808;SDS011;18379;48.208;-1.518;2022-10-31T19:26:17;56.37;;;52.10;;
31808;SDS011;18379;48.208;-1.518;2022-10-31T19:31:18;55.27;;;50.90;;
31808;SDS011;18379;48.208;-1.518;2022-10-31T19:36:19;55.70;;;51.10;;
31808;SDS011;18379;48.208;-1.518;2022-10-31T19:41:22;55.37;;;50.60;;
31808;SDS011;18379;48.208;-1.518;2022-10-31T19:46:25;55.50;;;51.40;;
31808;SDS011;18379;48.208;-1.518;2022-10-31T19:51:26;46.10;;;42.37;;
31808;SDS011;18379;48.208;-1.518;2022-10-31T19:56:27;44.53;;;41.10;;
31808;SDS011;18379;48.208;-1.518;2022-10-31T20:01:27;43.93;;;40.63;;
31808;SDS011;18379;48.208;-1.518;2022-10-31T20:06:38;44.70;;;41.43;;
31808;SDS011;18379;48.208;-1.518;2022-10-31T20:11:41;56.17;;;51.33;;
31808;SDS011;18379;48.208;-1.518;2022-10-31T20:16:43;56.37;;;51.63;;
31808;SDS011;18379;48.208;-1.518;2022-10-31T20:21:44;57.03;;;52.17;;
31808;SDS011;18379;48.208;-1.518;2022-10-31T20:26:45;52.50;;;47.87;;
31808;SDS011;18379;48.208;-1.518;2022-10-31T20:31:46;54.60;;;49.80;;
31808;SDS011;18379;48.208;-1.518;2022-10-31T20:36:47;56.60;;;51.67;;
31808;SDS011;18379;48.208;-1.518;2022-10-31T20:41:48;55.93;;;51.27;;
31808;SDS011;18379;48.208;-1.518;2022-10-31T20:46:48;55.30;;;50.90;;
31808;SDS011;18379;48.208;-1.518;2022-10-31T20:51:49;56.43;;;51.77;;
31808;SDS011;18379;48.208;-1.518;2022-10-31T20:56:50;54.97;;;50.63;;
31808;SDS011;18379;48.208;-1.518;2022-10-31T21:01:51;56.57;;;51.40;;
31808;SDS011;18379;48.208;-1.518;2022-10-31T21:06:51;56.07;;;50.90;;
31808;SDS011;18379;48.208;-1.518;2022-10-31T21:11:52;52.63;;;48.40;;
31808;SDS011;18379;48.208;-1.518;2022-10-31T21:16:53;48.77;;;45.03;;
31808;SDS011;18379;48.208;-1.518;2022-10-31T21:21:54;47.57;;;43.60;;
31808;SDS011;18379;48.208;-1.518;2022-10-31T21:26:54;43.00;;;39.83;;
31808;SDS011;18379;48.208;-1.518;2022-10-31T21:31:55;41.93;;;38.60;;
31808;SDS011;18379;48.208;-1.518;2022-10-31T21:36:56;42.00;;;39.10;;
31808;SDS011;18379;48.208;-1.518;2022-10-31T21:41:57;42.40;;;39.47;;
31808;SDS011;18379;48.208;-1.518;2022-10-31T21:46:57;41.00;;;38.30;;
31808;SDS011;18379;48.208;-1.518;2022-10-31T21:51:58;42.03;;;38.83;;
31808;SDS011;18379;48.208;-1.518;2022-10-31T21:57:00;41.30;;;38.23;;
31808;SDS011;18379;48.208;-1.518;2022-10-31T22:02:02;41.53;;;38.70;;
31808;SDS011;18379;48.208;-1.518;2022-10-31T22:07:03;41.80;;;38.70;;
31808;SDS011;18379;48.208;-1.518;2022-10-31T22:12:04;42.00;;;38.90;;
31808;SDS011;18379;48.208;-1.518;2022-10-31T22:17:08;50.53;;;46.43;;
31808;SDS011;18379;48.208;-1.518;2022-10-31T22:22:10;53.40;;;48.97;;
31808;SDS011;18379;48.208;-1.518;2022-10-31T22:27:12;54.13;;;49.63;;
31808;SDS011;18379;48.208;-1.518;2022-10-31T22:32:12;54.47;;;49.97;;
31808;SDS011;18379;48.208;-1.518;2022-10-31T22:37:13;53.70;;;49.17;;
31808;SDS011;18379;48.208;-1.518;2022-10-31T22:42:14;54.23;;;50.00;;
31808;SDS011;18379;48.208;-1.518;2022-10-31T22:47:14;55.87;;;50.90;;
31808;SDS011;18379;48.208;-1.518;2022-10-31T22:52:15;52.43;;;48.33;;
31808;SDS011;18379;48.208;-1.518;2022-10-31T22:57:16;52.30;;;47.90;;
31808;SDS011;18379;48.208;-1.518;2022-10-31T23:02:17;51.80;;;47.60;;
31808;SDS011;18379;48.208;-1.518;2022-10-31T23:07:18;54.83;;;50.13;;
31808;SDS011;18379;48.208;-1.518;2022-10-31T23:12:19;53.37;;;48.90;;
31808;SDS011;18379;48.208;-1.518;2022-10-31T23:17:38;50.77;;;46.70;;
31808;SDS011;18379;48.208;-1.518;2022-10-31T23:22:39;51.23;;;46.87;;
31808;SDS011;18379;48.208;-1.518;2022-10-31T23:27:40;52.87;;;48.90;;
31808;SDS011;18379;48.208;-1.518;2022-10-31T23:32:41;52.90;;;48.60;;
31808;SDS011;18379;48.208;-1.518;2022-10-31T23:37:41;55.37;;;50.57;;
31808;SDS011;18379;48.208;-1.518;2022-10-31T23:42:43;54.67;;;50.27;;
31808;SDS011;18379;48.208;-1.518;2022-10-31T23:47:44;55.73;;;51.00;;
31808;SDS011;18379;48.208;-1.518;2022-10-31T23:52:45;55.50;;;50.73;;
31808;SDS011;18379;48.208;-1.518;2022-10-31T23:57:47;52.63;;;47.87;;
